createdAt,value
2023-02-04T00:00:52.198Z,1002.33
2023-02-04T00:01:52.093Z,1002.34
2023-02-04T00:02:52.066Z,1002.34
2023-02-04T00:03:51.926Z,1002.33
2023-02-04T00:04:51.842Z,1002.36
2023-02-04T00:05:51.829Z,1002.32
2023-02-04T00:06:51.676Z,1002.36
2023-02-04T00:07:51.590Z,1002.40
2023-02-04T00:08:51.513Z,1002.42
2023-02-04T00:09:51.431Z,1002.46
2023-02-04T00:10:51.344Z,1002.51
2023-02-04T00:11:51.269Z,1002.54
2023-02-04T00:12:51.176Z,1002.55
2023-02-04T00:13:51.088Z,1002.58
2023-02-04T00:14:51.012Z,1002.59
2023-02-04T00:15:50.934Z,1002.57
2023-02-04T00:16:50.864Z,1002.53
2023-02-04T00:17:50.758Z,1002.54
2023-02-04T00:18:50.674Z,1002.55
2023-02-04T00:19:50.592Z,1002.58
2023-02-04T00:20:50.516Z,1002.60
2023-02-04T00:21:50.522Z,1002.58
2023-02-04T00:22:50.340Z,1002.59
2023-02-04T00:23:50.254Z,1002.60
2023-02-04T00:24:50.177Z,1002.57
2023-02-04T00:25:50.089Z,1002.56
2023-02-04T00:26:50.016Z,1002.55
2023-02-04T00:27:49.954Z,1002.58
2023-02-04T00:28:49.839Z,1002.58
2023-02-04T00:29:49.805Z,1002.56
2023-02-04T00:30:49.674Z,1002.59
2023-02-04T00:31:49.706Z,1002.60
2023-02-04T00:32:49.526Z,1002.60
2023-02-04T00:33:49.422Z,1002.57
2023-02-04T00:34:49.343Z,1002.60
2023-02-04T00:35:49.252Z,1002.56
2023-02-04T00:36:49.171Z,1002.60
2023-02-04T00:37:49.091Z,1002.61
2023-02-04T00:38:49.005Z,1002.67
2023-02-04T00:39:48.923Z,1002.66
2023-02-04T00:40:48.840Z,1002.67
2023-02-04T00:41:48.753Z,1002.63
2023-02-04T00:42:48.678Z,1002.69
2023-02-04T00:43:48.590Z,1002.66
2023-02-04T00:44:48.504Z,1002.65
2023-02-04T00:45:48.498Z,1002.64
2023-02-04T00:46:48.338Z,1002.70
2023-02-04T00:47:48.253Z,1002.70
2023-02-04T00:48:48.189Z,1002.69
2023-02-04T00:49:48.086Z,1002.67
2023-02-04T00:50:48.008Z,1002.72
2023-02-04T00:51:47.918Z,1002.74
2023-02-04T00:52:47.837Z,1002.74
2023-02-04T00:53:47.755Z,1002.80
2023-02-04T00:54:47.670Z,1002.81
2023-02-04T00:55:47.593Z,1002.79
2023-02-04T00:56:47.508Z,1002.82
2023-02-04T00:57:47.420Z,1002.76
2023-02-04T00:58:47.335Z,1002.80
2023-02-04T00:59:47.250Z,1002.79
2023-02-04T01:00:47.178Z,1002.83
2023-02-04T01:01:47.084Z,1002.81
2023-02-04T01:02:47.108Z,1002.79
2023-02-04T01:03:46.917Z,1002.77
2023-02-04T01:04:46.905Z,1002.72
2023-02-04T01:05:46.756Z,1002.74
2023-02-04T01:06:46.674Z,1002.72
2023-02-04T01:07:46.711Z,1002.74
2023-02-04T01:08:46.505Z,1002.76
2023-02-04T01:09:46.419Z,1002.79
2023-02-04T01:10:46.339Z,1002.79
2023-02-04T01:11:46.255Z,1002.80
2023-02-04T01:12:46.174Z,1002.82
2023-02-04T01:13:46.088Z,1002.81
2023-02-04T01:14:46.002Z,1002.85
2023-02-04T01:15:45.916Z,1002.80
2023-02-04T01:16:45.998Z,1002.81
2023-02-04T01:17:45.753Z,1002.83
2023-02-04T01:18:45.668Z,1002.83
2023-02-04T01:19:45.580Z,1002.84
2023-02-04T01:20:45.521Z,1002.84
2023-02-04T01:21:45.424Z,1002.91
2023-02-04T01:22:45.403Z,1002.90
2023-02-04T01:23:45.258Z,1002.91
2023-02-04T01:24:45.174Z,1002.93
2023-02-04T01:25:45.080Z,1002.85
2023-02-04T01:26:44.997Z,1002.83
2023-02-04T01:27:45.025Z,1002.85
2023-02-04T01:28:44.829Z,1002.83
2023-02-04T01:29:44.744Z,1002.77
2023-02-04T01:30:44.720Z,1002.80
2023-02-04T01:31:44.607Z,1002.82
2023-02-04T01:32:44.755Z,1002.90
2023-02-04T01:33:44.408Z,1002.89
2023-02-04T01:34:44.323Z,1002.84
2023-02-04T01:35:44.246Z,1002.84
2023-02-04T01:36:44.397Z,1002.86
2023-02-04T01:37:44.074Z,1002.86
2023-02-04T01:38:43.990Z,1002.94
2023-02-04T01:39:43.907Z,1002.89
2023-02-04T01:40:43.822Z,1002.90
2023-02-04T01:41:43.738Z,1002.92
2023-02-04T01:42:43.653Z,1003.00
2023-02-04T01:43:43.568Z,1003.07
2023-02-04T01:44:43.484Z,1003.07
2023-02-04T01:45:43.448Z,1003.04
2023-02-04T01:46:43.325Z,1003.11
2023-02-04T01:47:43.228Z,1003.13
2023-02-04T01:48:43.147Z,1003.13
2023-02-04T01:49:43.076Z,1003.14
2023-02-04T01:50:42.974Z,1003.07
2023-02-04T01:51:42.894Z,1003.02
2023-02-04T01:52:42.830Z,1003.01
2023-02-04T01:53:42.723Z,1002.99
2023-02-04T01:54:42.639Z,1003.03
2023-02-04T01:55:42.554Z,1003.02
2023-02-04T01:56:42.519Z,1003.05
2023-02-04T01:57:42.387Z,1002.91
2023-02-04T01:58:42.304Z,1002.91
2023-02-04T01:59:42.270Z,1002.96
2023-02-04T02:00:42.141Z,1002.99
2023-02-04T02:01:42.124Z,1003.03
2023-02-04T02:02:42.061Z,1003.06
2023-02-04T02:03:41.932Z,1003.13
2023-02-04T02:04:41.796Z,1003.17
2023-02-04T02:05:41.713Z,1003.18
2023-02-04T02:06:41.632Z,1003.13
2023-02-04T02:07:41.546Z,1003.13
2023-02-04T02:08:41.480Z,1003.13
2023-02-04T02:09:41.379Z,1003.14
2023-02-04T02:10:41.511Z,1003.16
2023-02-04T02:11:41.209Z,1003.22
2023-02-04T02:12:41.121Z,1003.24
2023-02-04T02:13:41.039Z,1003.27
2023-02-04T02:14:40.954Z,1003.24
2023-02-04T02:15:40.888Z,1003.26
2023-02-04T02:16:40.812Z,1003.25
2023-02-04T02:17:40.724Z,1003.27
2023-02-04T02:18:40.631Z,1003.20
2023-02-04T02:19:40.536Z,1003.24
2023-02-04T02:20:40.450Z,1003.23
2023-02-04T02:21:40.367Z,1003.27
2023-02-04T02:22:40.284Z,1003.27
2023-02-04T02:23:40.201Z,1003.28
2023-02-04T02:24:40.144Z,1003.29
2023-02-04T02:25:40.030Z,1003.32
2023-02-04T02:26:39.949Z,1003.32
2023-02-04T02:27:39.898Z,1003.32
2023-02-04T02:28:39.778Z,1003.29
2023-02-04T02:29:39.702Z,1003.32
2023-02-04T02:30:39.642Z,1003.34
2023-02-04T02:31:39.616Z,1003.32
2023-02-04T02:32:39.442Z,1003.30
2023-02-04T02:33:39.357Z,1003.28
2023-02-04T02:34:39.278Z,1003.28
2023-02-04T02:35:39.196Z,1003.30
2023-02-04T02:36:39.104Z,1003.32
2023-02-04T02:37:39.021Z,1003.27
2023-02-04T02:38:39.042Z,1003.30
2023-02-04T02:39:38.854Z,1003.31
2023-02-04T02:40:38.797Z,1003.32
2023-02-04T02:41:38.684Z,1003.31
2023-02-04T02:42:38.600Z,1003.33
2023-02-04T02:43:38.522Z,1003.36
2023-02-04T02:44:38.439Z,1003.38
2023-02-04T02:45:38.362Z,1003.35
2023-02-04T02:46:38.265Z,1003.32
2023-02-04T02:47:38.198Z,1003.26
2023-02-04T02:48:38.092Z,1003.30
2023-02-04T02:49:38.006Z,1003.29
2023-02-04T02:50:37.924Z,1003.28
2023-02-04T02:51:37.836Z,1003.35
2023-02-04T02:52:37.757Z,1003.46
2023-02-04T02:53:37.674Z,1003.46
2023-02-04T02:54:37.586Z,1003.47
2023-02-04T02:55:37.499Z,1003.49
2023-02-04T02:56:37.435Z,1003.46
2023-02-04T02:57:37.329Z,1003.44
2023-02-04T02:58:37.246Z,1003.51
2023-02-04T02:59:37.162Z,1003.49
2023-02-04T03:00:37.080Z,1003.53
2023-02-04T03:01:37.031Z,1003.52
2023-02-04T03:02:36.967Z,1003.55
2023-02-04T03:03:36.821Z,1003.54
2023-02-04T03:04:36.737Z,1003.53
2023-02-04T03:05:36.656Z,1003.55
2023-02-04T03:06:36.571Z,1003.60
2023-02-04T03:07:36.489Z,1003.55
2023-02-04T03:08:36.399Z,1003.55
2023-02-04T03:09:36.315Z,1003.60
2023-02-04T03:10:36.237Z,1003.55
2023-02-04T03:11:36.145Z,1003.58
2023-02-04T03:12:36.088Z,1003.55
2023-02-04T03:13:35.977Z,1003.61
2023-02-04T03:14:35.895Z,1003.60
2023-02-04T03:15:35.869Z,1003.64
2023-02-04T03:16:35.730Z,1003.64
2023-02-04T03:17:35.648Z,1003.66
2023-02-04T03:18:35.555Z,1003.67
2023-02-04T03:19:35.469Z,1003.69
2023-02-04T03:20:35.388Z,1003.78
2023-02-04T03:21:35.316Z,1003.78
2023-02-04T03:22:35.220Z,1003.78
2023-02-04T03:23:35.137Z,1003.79
2023-02-04T03:24:35.050Z,1003.81
2023-02-04T03:25:35.014Z,1003.79
2023-02-04T03:26:34.887Z,1003.85
2023-02-04T03:27:34.796Z,1003.81
2023-02-04T03:28:34.739Z,1003.83
2023-02-04T03:29:34.631Z,1003.81
2023-02-04T03:30:34.547Z,1003.85
2023-02-04T03:31:34.557Z,1003.86
2023-02-04T03:32:34.377Z,1003.88
2023-02-04T03:33:34.293Z,1003.92
2023-02-04T03:34:34.204Z,1003.91
2023-02-04T03:35:34.128Z,1003.93
2023-02-04T03:36:34.051Z,1003.91
2023-02-04T03:37:33.952Z,1003.91
2023-02-04T03:38:33.869Z,1003.93
2023-02-04T03:39:33.793Z,1003.95
2023-02-04T03:40:33.728Z,1003.96
2023-02-04T03:41:33.671Z,1003.96
2023-02-04T03:42:33.544Z,1003.99
2023-02-04T03:43:34.145Z,1003.98
2023-02-04T03:44:33.383Z,1003.99
2023-02-04T03:45:44.731Z,1004.05
2023-02-04T03:46:33.213Z,1004.02
2023-02-04T03:47:33.116Z,1004.10
2023-02-04T03:48:33.025Z,1004.15
2023-02-04T03:49:32.949Z,1004.19
2023-02-04T03:50:33.155Z,1004.23
2023-02-04T03:51:32.769Z,1004.20
2023-02-04T03:52:32.984Z,1004.20
2023-02-04T03:53:32.609Z,1004.25
2023-02-04T03:54:32.516Z,1004.26
2023-02-04T03:55:32.450Z,1004.21
2023-02-04T03:56:32.348Z,1004.20
2023-02-04T03:57:32.269Z,1004.22
2023-02-04T03:58:32.183Z,1004.22
2023-02-04T03:59:32.094Z,1004.25
2023-02-04T04:00:32.427Z,1004.24
2023-02-04T04:01:31.975Z,1004.28
2023-02-04T04:02:31.973Z,1004.27
2023-02-04T04:03:31.768Z,1004.25
2023-02-04T04:04:31.680Z,1004.28
2023-02-04T04:05:31.592Z,1004.29
2023-02-04T04:06:31.513Z,1004.33
2023-02-04T04:07:31.424Z,1004.34
2023-02-04T04:08:31.333Z,1004.38
2023-02-04T04:09:31.300Z,1004.38
2023-02-04T04:10:31.602Z,1004.46
2023-02-04T04:11:31.081Z,1004.44
2023-02-04T04:12:31.001Z,1004.43
2023-02-04T04:13:30.950Z,1004.43
2023-02-04T04:14:30.831Z,1004.42
2023-02-04T04:15:30.749Z,1004.41
2023-02-04T04:16:30.689Z,1004.36
2023-02-04T04:17:30.581Z,1004.38
2023-02-04T04:18:30.499Z,1004.37
2023-02-04T04:19:30.405Z,1004.42
2023-02-04T04:20:30.842Z,1004.43
2023-02-04T04:21:30.238Z,1004.47
2023-02-04T04:22:30.176Z,1004.50
2023-02-04T04:23:30.070Z,1004.53
2023-02-04T04:24:30.132Z,1004.53
2023-02-04T04:25:29.898Z,1004.55
2023-02-04T04:26:29.815Z,1004.51
2023-02-04T04:27:29.729Z,1004.50
2023-02-04T04:28:29.644Z,1004.47
2023-02-04T04:29:29.557Z,1004.46
2023-02-04T04:30:30.077Z,1004.51
2023-02-04T04:31:29.519Z,1004.48
2023-02-04T04:32:29.322Z,1004.52
2023-02-04T04:33:29.217Z,1004.59
2023-02-04T04:34:29.140Z,1004.59
2023-02-04T04:35:29.052Z,1004.63
2023-02-04T04:36:28.962Z,1004.73
2023-02-04T04:37:28.877Z,1004.75
2023-02-04T04:38:28.793Z,1004.77
2023-02-04T04:39:28.709Z,1004.81
2023-02-04T04:40:28.648Z,1004.77
2023-02-04T04:41:28.537Z,1004.79
2023-02-04T04:42:28.458Z,1004.79
2023-02-04T04:43:28.368Z,1004.86
2023-02-04T04:44:28.283Z,1004.85
2023-02-04T04:45:28.201Z,1004.89
2023-02-04T04:46:28.123Z,1004.84
2023-02-04T04:47:28.027Z,1004.83
2023-02-04T04:48:27.964Z,1004.81
2023-02-04T04:49:27.858Z,1004.84
2023-02-04T04:50:27.774Z,1004.81
2023-02-04T04:51:27.694Z,1004.80
2023-02-04T04:52:27.605Z,1004.81
2023-02-04T04:53:27.523Z,1004.84
2023-02-04T04:54:27.445Z,1004.78
2023-02-04T04:55:27.350Z,1004.81
2023-02-04T04:56:27.266Z,1004.78
2023-02-04T04:57:27.183Z,1004.73
2023-02-04T04:58:27.097Z,1004.70
2023-02-04T04:59:27.010Z,1004.65
2023-02-04T05:00:27.338Z,1004.65
2023-02-04T05:01:26.842Z,1004.70
2023-02-04T05:02:26.762Z,1004.69
2023-02-04T05:03:26.782Z,1004.70
2023-02-04T05:04:26.636Z,1004.63
2023-02-04T05:05:26.508Z,1004.60
2023-02-04T05:06:26.424Z,1004.65
2023-02-04T05:07:26.740Z,1004.63
2023-02-04T05:08:26.258Z,1004.65
2023-02-04T05:09:26.170Z,1004.62
2023-02-04T05:10:26.085Z,1004.60
2023-02-04T05:11:26.002Z,1004.67
2023-02-04T05:12:25.929Z,1004.70
2023-02-04T05:13:25.931Z,1004.71
2023-02-04T05:14:25.753Z,1004.74
2023-02-04T05:15:25.664Z,1004.73
2023-02-04T05:16:25.638Z,1004.77
2023-02-04T05:17:26.243Z,1004.73
2023-02-04T05:18:25.415Z,1004.78
2023-02-04T05:19:25.331Z,1004.80
2023-02-04T05:20:25.260Z,1004.85
2023-02-04T05:21:25.153Z,1004.88
2023-02-04T05:22:25.069Z,1004.85
2023-02-04T05:23:24.983Z,1004.83
2023-02-04T05:24:24.902Z,1004.84
2023-02-04T05:25:24.813Z,1004.86
2023-02-04T05:26:30.178Z,1004.86
2023-02-04T05:27:24.647Z,1004.92
2023-02-04T05:28:24.559Z,1004.91
2023-02-04T05:29:24.475Z,1004.88
2023-02-04T05:30:24.400Z,1004.89
2023-02-04T05:31:24.363Z,1004.90
2023-02-04T05:32:24.221Z,1004.95
2023-02-04T05:33:24.135Z,1004.91
2023-02-04T05:34:24.052Z,1004.90
2023-02-04T05:35:23.965Z,1004.88
2023-02-04T05:36:23.897Z,1004.88
2023-02-04T05:37:23.794Z,1004.88
2023-02-04T05:38:23.709Z,1004.89
2023-02-04T05:39:23.645Z,1004.98
2023-02-04T05:40:23.535Z,1004.98
2023-02-04T05:41:23.448Z,1004.97
2023-02-04T05:42:23.367Z,1005.00
2023-02-04T05:43:23.277Z,1004.96
2023-02-04T05:44:23.195Z,1004.98
2023-02-04T05:45:23.177Z,1004.99
2023-02-04T05:46:23.024Z,1004.98
2023-02-04T05:47:22.943Z,1004.98
2023-02-04T05:48:22.854Z,1005.01
2023-02-04T05:49:22.766Z,1005.03
2023-02-04T05:50:22.680Z,1004.97
2023-02-04T05:51:22.594Z,1004.95
2023-02-04T05:52:22.524Z,1004.99
2023-02-04T05:53:22.422Z,1004.98
2023-02-04T05:54:22.346Z,1005.01
2023-02-04T05:55:22.248Z,1005.04
2023-02-04T05:56:22.369Z,1005.05
2023-02-04T05:57:22.079Z,1005.03
2023-02-04T05:58:21.993Z,1005.07
2023-02-04T05:59:21.906Z,1005.08
2023-02-04T06:00:21.834Z,1005.10
2023-02-04T06:01:21.739Z,1005.07
2023-02-04T06:02:21.655Z,1005.09
2023-02-04T06:03:21.711Z,1005.07
2023-02-04T06:04:21.561Z,1005.07
2023-02-04T06:05:21.391Z,1005.10
2023-02-04T06:06:21.307Z,1005.11
2023-02-04T06:07:21.221Z,1005.15
2023-02-04T06:08:21.156Z,1005.09
2023-02-04T06:09:21.050Z,1005.07
2023-02-04T06:10:20.962Z,1005.10
2023-02-04T06:11:20.877Z,1005.17
2023-02-04T06:12:20.791Z,1005.14
2023-02-04T06:13:20.704Z,1005.17
2023-02-04T06:14:20.623Z,1005.17
2023-02-04T06:15:20.544Z,1005.15
2023-02-04T06:16:20.484Z,1005.15
2023-02-04T06:17:20.362Z,1005.14
2023-02-04T06:18:20.281Z,1005.11
2023-02-04T06:19:20.195Z,1005.07
2023-02-04T06:20:20.117Z,1005.06
2023-02-04T06:21:20.028Z,1005.03
2023-02-04T06:22:19.935Z,1005.07
2023-02-04T06:23:19.844Z,1005.03
2023-02-04T06:24:19.793Z,1005.01
2023-02-04T06:25:19.674Z,1005.04
2023-02-04T06:26:19.993Z,1005.10
2023-02-04T06:27:19.502Z,1005.12
2023-02-04T06:28:19.496Z,1005.19
2023-02-04T06:29:19.330Z,1005.23
2023-02-04T06:30:19.284Z,1005.30
2023-02-04T06:31:19.262Z,1005.30
2023-02-04T06:32:19.076Z,1005.37
2023-02-04T06:33:18.987Z,1005.32
2023-02-04T06:34:18.902Z,1005.28
2023-02-04T06:35:18.816Z,1005.32
2023-02-04T06:36:18.737Z,1005.33
2023-02-04T06:37:18.649Z,1005.38
2023-02-04T06:38:18.561Z,1005.42
2023-02-04T06:39:18.487Z,1005.46
2023-02-04T06:40:18.406Z,1005.45
2023-02-04T06:41:18.302Z,1005.45
2023-02-04T06:42:18.220Z,1005.47
2023-02-04T06:43:18.131Z,1005.45
2023-02-04T06:44:18.046Z,1005.51
2023-02-04T06:45:17.959Z,1005.51
2023-02-04T06:46:17.954Z,1005.54
2023-02-04T06:47:17.788Z,1005.55
2023-02-04T06:48:17.702Z,1005.55
2023-02-04T06:49:17.615Z,1005.58
2023-02-04T06:50:17.528Z,1005.60
2023-02-04T06:51:17.445Z,1005.56
2023-02-04T06:52:17.354Z,1005.57
2023-02-04T06:53:17.274Z,1005.51
2023-02-04T06:54:17.183Z,1005.57
2023-02-04T06:55:17.103Z,1005.63
2023-02-04T06:56:17.031Z,1005.62
2023-02-04T06:57:16.926Z,1005.68
2023-02-04T06:58:16.843Z,1005.72
2023-02-04T06:59:16.770Z,1005.65
2023-02-04T07:00:16.679Z,1005.68
2023-02-04T07:01:16.625Z,1005.66
2023-02-04T07:02:16.561Z,1005.66
2023-02-04T07:03:16.412Z,1005.65
2023-02-04T07:04:16.322Z,1005.67
2023-02-04T07:05:16.241Z,1005.64
2023-02-04T07:06:16.164Z,1005.70
2023-02-04T07:07:16.070Z,1005.65
2023-02-04T07:08:15.982Z,1005.65
2023-02-04T07:09:15.900Z,1005.66
2023-02-04T07:10:15.808Z,1005.71
2023-02-04T07:11:15.723Z,1005.74
2023-02-04T07:12:16.431Z,1005.72
2023-02-04T07:13:15.559Z,1005.79
2023-02-04T07:14:15.467Z,1005.81
2023-02-04T07:15:15.380Z,1005.85
2023-02-04T07:16:15.343Z,1005.89
2023-02-04T07:17:15.209Z,1005.93
2023-02-04T07:18:15.122Z,1005.92
2023-02-04T07:19:15.060Z,1005.92
2023-02-04T07:20:14.948Z,1005.96
2023-02-04T07:21:14.871Z,1006.00
2023-02-04T07:22:15.032Z,1005.99
2023-02-04T07:23:14.698Z,1006.00
2023-02-04T07:24:14.607Z,1006.06
2023-02-04T07:25:14.526Z,1006.11
2023-02-04T07:26:14.438Z,1006.15
2023-02-04T07:27:14.360Z,1006.21
2023-02-04T07:28:14.396Z,1006.24
2023-02-04T07:29:17.575Z,1006.24
2023-02-04T07:30:14.141Z,1006.25
2023-02-04T07:31:14.148Z,1006.18
2023-02-04T07:32:13.924Z,1006.21
2023-02-04T07:33:13.856Z,1006.21
2023-02-04T07:34:13.755Z,1006.27
2023-02-04T07:35:13.667Z,1006.24
2023-02-04T07:36:15.254Z,1006.24
2023-02-04T07:37:13.497Z,1006.33
2023-02-04T07:38:13.410Z,1006.26
2023-02-04T07:39:13.321Z,1006.28
2023-02-04T07:40:13.234Z,1006.21
2023-02-04T07:41:13.150Z,1006.26
2023-02-04T07:42:13.065Z,1006.30
2023-02-04T07:43:12.985Z,1006.31
2023-02-04T07:44:12.912Z,1006.37
2023-02-04T07:45:12.804Z,1006.37
2023-02-04T07:46:12.755Z,1006.39
2023-02-04T07:47:12.637Z,1006.41
2023-02-04T07:48:12.551Z,1006.40
2023-02-04T07:49:12.462Z,1006.40
2023-02-04T07:50:12.378Z,1006.46
2023-02-04T07:51:12.292Z,1006.45
2023-02-04T07:52:12.206Z,1006.43
2023-02-04T07:53:12.120Z,1006.47
2023-02-04T07:54:12.037Z,1006.49
2023-02-04T07:55:11.949Z,1006.52
2023-02-04T07:56:11.863Z,1006.53
2023-02-04T07:57:11.780Z,1006.58
2023-02-04T07:58:11.793Z,1006.60
2023-02-04T07:59:11.613Z,1006.55
2023-02-04T08:00:11.548Z,1006.63
2023-02-04T08:01:11.485Z,1006.64
2023-02-04T08:02:11.367Z,1006.69
2023-02-04T08:03:11.268Z,1006.65
2023-02-04T08:04:11.183Z,1006.70
2023-02-04T08:05:11.115Z,1006.68
2023-02-04T08:06:11.016Z,1006.68
2023-02-04T08:07:10.928Z,1006.72
2023-02-04T08:08:10.841Z,1006.71
2023-02-04T08:09:10.761Z,1006.69
2023-02-04T08:10:10.671Z,1006.67
2023-02-04T08:11:10.586Z,1006.67
2023-02-04T08:12:10.506Z,1006.69
2023-02-04T08:13:10.417Z,1006.72
2023-02-04T08:14:10.334Z,1006.73
2023-02-04T08:15:10.249Z,1006.75
2023-02-04T08:16:11.940Z,1006.74
2023-02-04T08:17:10.095Z,1006.71
2023-02-04T08:18:10.002Z,1006.74
2023-02-04T08:19:09.908Z,1006.78
2023-02-04T08:20:09.825Z,1006.73
2023-02-04T08:21:09.738Z,1006.79
2023-02-04T08:22:09.654Z,1006.79
2023-02-04T08:23:09.571Z,1006.83
2023-02-04T08:24:09.486Z,1006.89
2023-02-04T08:25:09.600Z,1006.84
2023-02-04T08:26:09.315Z,1006.89
2023-02-04T08:27:09.229Z,1006.87
2023-02-04T08:28:09.156Z,1006.90
2023-02-04T08:29:09.058Z,1006.92
2023-02-04T08:30:09.015Z,1006.94
2023-02-04T08:31:08.978Z,1006.95
2023-02-04T08:32:08.821Z,1006.94
2023-02-04T08:33:08.722Z,1006.95
2023-02-04T08:34:08.636Z,1006.95
2023-02-04T08:35:08.554Z,1006.97
2023-02-04T08:36:08.465Z,1007.01
2023-02-04T08:37:08.378Z,1007.02
2023-02-04T08:38:08.290Z,1007.07
2023-02-04T08:39:08.207Z,1007.04
2023-02-04T08:40:08.120Z,1007.08
2023-02-04T08:41:08.037Z,1007.09
2023-02-04T08:42:07.954Z,1007.14
2023-02-04T08:43:07.869Z,1007.15
2023-02-04T08:44:07.779Z,1007.14
2023-02-04T08:45:07.700Z,1007.16
2023-02-04T08:46:07.627Z,1007.23
2023-02-04T08:47:07.537Z,1007.26
2023-02-04T08:48:07.470Z,1007.27
2023-02-04T08:49:07.718Z,1007.26
2023-02-04T08:50:07.587Z,1007.29
2023-02-04T08:51:07.209Z,1007.32
2023-02-04T08:52:07.220Z,1007.33
2023-02-04T08:53:07.035Z,1007.35
2023-02-04T08:54:06.955Z,1007.36
2023-02-04T08:55:06.922Z,1007.34
2023-02-04T08:56:06.785Z,1007.37
2023-02-04T08:57:06.701Z,1007.41
2023-02-04T08:58:06.627Z,1007.40
2023-02-04T08:59:06.533Z,1007.37
2023-02-04T09:00:06.446Z,1007.42
2023-02-04T09:01:06.481Z,1007.46
2023-02-04T09:02:06.352Z,1007.44
2023-02-04T09:03:06.201Z,1007.45
2023-02-04T09:04:06.134Z,1007.48
2023-02-04T09:05:06.033Z,1007.48
2023-02-04T09:06:05.949Z,1007.52
2023-02-04T09:07:05.864Z,1007.49
2023-02-04T09:08:05.793Z,1007.55
2023-02-04T09:09:05.698Z,1007.55
2023-02-04T09:10:05.615Z,1007.59
2023-02-04T09:11:05.530Z,1007.60
2023-02-04T09:12:05.447Z,1007.56
2023-02-04T09:13:05.360Z,1007.59
2023-02-04T09:14:05.279Z,1007.62
2023-02-04T09:15:05.195Z,1007.65
2023-02-04T09:16:05.143Z,1007.67
2023-02-04T09:17:05.030Z,1007.66
2023-02-04T09:18:04.999Z,1007.68
2023-02-04T09:19:04.869Z,1007.65
2023-02-04T09:20:04.800Z,1007.66
2023-02-04T09:21:04.699Z,1007.66
2023-02-04T09:22:04.613Z,1007.65
2023-02-04T09:23:04.539Z,1007.63
2023-02-04T09:24:04.448Z,1007.60
2023-02-04T09:25:04.385Z,1007.62
2023-02-04T09:26:04.282Z,1007.61
2023-02-04T09:27:04.199Z,1007.61
2023-02-04T09:28:04.188Z,1007.57
2023-02-04T09:29:04.035Z,1007.54
2023-02-04T09:30:04.152Z,1007.59
2023-02-04T09:31:04.706Z,1007.57
2023-02-04T09:32:03.799Z,1007.53
2023-02-04T09:33:03.708Z,1007.56
2023-02-04T09:34:03.618Z,1007.59
2023-02-04T09:35:03.538Z,1007.62
2023-02-04T09:36:03.470Z,1007.60
2023-02-04T09:37:03.378Z,1007.62
2023-02-04T09:38:03.287Z,1007.62
2023-02-04T09:39:03.206Z,1007.60
2023-02-04T09:40:03.120Z,1007.68
2023-02-04T09:41:03.090Z,1007.67
2023-02-04T09:42:02.975Z,1007.67
2023-02-04T09:43:02.887Z,1007.69
2023-02-04T09:44:02.792Z,1007.70
2023-02-04T09:45:02.960Z,1007.76
2023-02-04T09:46:02.755Z,1007.77
2023-02-04T09:47:02.638Z,1007.84
2023-02-04T09:48:02.466Z,1007.85
2023-02-04T09:49:02.381Z,1007.87
2023-02-04T09:50:02.298Z,1007.89
2023-02-04T09:51:02.219Z,1007.91
2023-02-04T09:52:02.155Z,1007.92
2023-02-04T09:53:02.055Z,1007.96
2023-02-04T09:54:01.962Z,1007.98
2023-02-04T09:55:01.878Z,1007.95
2023-02-04T09:56:01.792Z,1007.91
2023-02-04T09:57:01.814Z,1008.00
2023-02-04T09:58:01.625Z,1007.94
2023-02-04T09:59:01.560Z,1007.95
2023-02-04T10:00:01.528Z,1008.01
2023-02-04T10:01:01.495Z,1007.98
2023-02-04T10:02:01.292Z,1007.95
2023-02-04T10:03:01.208Z,1007.91
2023-02-04T10:04:01.241Z,1007.98
2023-02-04T10:05:01.504Z,1007.98
2023-02-04T10:06:00.964Z,1008.02
2023-02-04T10:07:00.945Z,1008.09
2023-02-04T10:08:00.855Z,1008.04
2023-02-04T10:09:00.707Z,1008.03
2023-02-04T10:10:00.633Z,1008.02
2023-02-04T10:11:00.545Z,1008.07
2023-02-04T10:12:00.803Z,1008.05
2023-02-04T10:13:00.375Z,1008.06
2023-02-04T10:14:00.297Z,1008.08
2023-02-04T10:15:00.212Z,1008.09
2023-02-04T10:16:00.147Z,1008.04
2023-02-04T10:17:00.095Z,1008.07
2023-02-04T10:17:59.975Z,1008.09
2023-02-04T10:18:59.874Z,1008.06
2023-02-04T10:19:59.793Z,1008.09
2023-02-04T10:20:59.713Z,1008.15
2023-02-04T10:21:59.630Z,1008.12
2023-02-04T10:22:59.554Z,1008.12
2023-02-04T10:23:59.535Z,1008.14
2023-02-04T10:24:59.385Z,1008.15
2023-02-04T10:25:59.606Z,1008.16
2023-02-04T10:26:59.222Z,1008.15
2023-02-04T10:27:59.175Z,1008.18
2023-02-04T10:28:59.062Z,1008.20
2023-02-04T10:29:58.984Z,1008.17
2023-02-04T10:30:59.274Z,1008.18
2023-02-04T10:31:58.891Z,1008.19
2023-02-04T10:32:58.747Z,1008.19
2023-02-04T10:33:58.709Z,1008.18
2023-02-04T10:34:58.582Z,1008.19
2023-02-04T10:35:58.496Z,1008.15
2023-02-04T10:36:58.417Z,1008.19
2023-02-04T10:37:58.336Z,1008.22
2023-02-04T10:38:58.308Z,1008.20
2023-02-04T10:39:58.196Z,1008.26
2023-02-04T10:40:58.093Z,1008.28
2023-02-04T10:41:58.038Z,1008.27
2023-02-04T10:42:57.931Z,1008.29
2023-02-04T10:43:57.851Z,1008.29
2023-02-04T10:44:57.768Z,1008.26
2023-02-04T10:45:57.752Z,1008.24
2023-02-04T10:46:57.605Z,1008.29
2023-02-04T10:47:57.526Z,1008.30
2023-02-04T10:48:57.442Z,1008.29
2023-02-04T10:49:57.370Z,1008.31
2023-02-04T10:50:57.279Z,1008.31
2023-02-04T10:51:57.917Z,1008.28
2023-02-04T10:52:57.115Z,1008.30
2023-02-04T10:53:57.100Z,1008.28
2023-02-04T10:54:56.952Z,1008.30
2023-02-04T10:55:56.893Z,1008.31
2023-02-04T10:56:56.790Z,1008.31
2023-02-04T10:57:56.720Z,1008.29
2023-02-04T10:58:56.628Z,1008.36
2023-02-04T10:59:56.549Z,1008.33
2023-02-04T11:00:56.515Z,1008.37
2023-02-04T11:01:56.388Z,1008.32
2023-02-04T11:02:56.365Z,1008.32
2023-02-04T11:03:56.227Z,1008.30
2023-02-04T11:04:56.149Z,1008.26
2023-02-04T11:05:56.067Z,1008.30
2023-02-04T11:06:55.985Z,1008.26
2023-02-04T11:07:55.908Z,1008.22
2023-02-04T11:08:55.824Z,1008.26
2023-02-04T11:09:55.745Z,1008.22
2023-02-04T11:10:55.663Z,1008.23
2023-02-04T11:11:55.600Z,1008.24
2023-02-04T11:12:55.804Z,1008.26
2023-02-04T11:13:55.425Z,1008.21
2023-02-04T11:14:55.344Z,1008.22
2023-02-04T11:15:55.351Z,1008.21
2023-02-04T11:16:55.183Z,1008.21
2023-02-04T11:17:55.102Z,1008.21
2023-02-04T11:18:55.025Z,1008.24
2023-02-04T11:19:54.944Z,1008.23
2023-02-04T11:20:54.872Z,1008.19
2023-02-04T11:21:54.785Z,1008.24
2023-02-04T11:22:54.738Z,1008.21
2023-02-04T11:23:54.627Z,1008.24
2023-02-04T11:24:54.547Z,1008.21
2023-02-04T11:25:54.465Z,1008.23
2023-02-04T11:26:54.388Z,1008.26
2023-02-04T11:27:54.370Z,1008.25
2023-02-04T11:28:54.274Z,1008.25
2023-02-04T11:29:54.151Z,1008.22
2023-02-04T11:30:54.136Z,1008.24
2023-02-04T11:31:54.116Z,1008.29
2023-02-04T11:32:54.207Z,1008.25
2023-02-04T11:33:53.827Z,1008.22
2023-02-04T11:34:53.746Z,1008.25
2023-02-04T11:35:53.666Z,1008.29
2023-02-04T11:36:53.585Z,1008.25
2023-02-04T11:37:55.776Z,1008.28
2023-02-04T11:38:53.421Z,1008.26
2023-02-04T11:39:53.347Z,1008.32
2023-02-04T11:40:53.460Z,1008.29
2023-02-04T11:41:53.181Z,1008.34
2023-02-04T11:42:53.097Z,1008.37
2023-02-04T11:43:53.038Z,1008.37
2023-02-04T11:44:52.949Z,1008.34
2023-02-04T11:45:52.871Z,1008.34
2023-02-04T11:46:52.770Z,1008.37
2023-02-04T11:47:52.703Z,1008.38
2023-02-04T11:48:52.611Z,1008.41
2023-02-04T11:49:52.531Z,1008.41
2023-02-04T11:50:52.449Z,1008.46
2023-02-04T11:51:52.370Z,1008.49
2023-02-04T11:52:52.292Z,1008.49
2023-02-04T11:53:52.212Z,1008.42
2023-02-04T11:54:52.130Z,1008.50
2023-02-04T11:55:52.051Z,1008.39
2023-02-04T11:56:51.971Z,1008.36
2023-02-04T11:57:51.895Z,1008.39
2023-02-04T11:58:51.812Z,1008.38
2023-02-04T11:59:51.758Z,1008.27
2023-02-04T12:00:51.659Z,1008.33
2023-02-04T12:02:51.607Z,1008.24
2023-02-04T12:03:51.480Z,1008.23
2023-02-04T12:04:51.345Z,1008.25
2023-02-04T12:05:51.266Z,1008.22